Luz De Mar — ECIJ — position and weather

sailwx.info

Track history (hours):
 
Tides and Currents Weather Stations Pressure Air Temp Water Temp Dewpoint Dewpoint Depression Visibility Wind Speed Wind Dir Waves Ship Positions

Luz De Mar

Last reported at 2015-Apr-16 13:33 UTC. Time now 2015-May-06 21:31 UTC.
Position N 35°60' W 005°29'.
Warning: this ship's position is 20 days out of date.

Length 56 m; draft 6.5 m.

Type: SAR. MMSI: 224311000.

Date/timePositionNaut miles runAvg speedWind from/ knotsBaromVisibWave heightAir tempDewpointWater temp
2015-Apr-16 13:33N 35°60' W 005°29'10 9.3
2015-Apr-16 12:31N 36°09' W 005°26'2 1.0
2015-Apr-16 10:33N 36°08' W 005°24'1211.9
2015-Apr-16 09:34N 35°56' W 005°20'3 2.6
2015-Apr-16 08:33N 35°54' W 005°19'0 0.0
2015-Apr-16 07:33N 35°54' W 005°19'0 0.0
2015-Apr-16 06:33N 35°54' W 005°19'0 0.0
2015-Apr-16 05:33N 35°54' W 005°19'0 0.0
2015-Apr-16 04:33N 35°54' W 005°19'0 0.0
2015-Apr-16 03:33N 35°54' W 005°19'0 0.0
2015-Apr-16 02:33N 35°54' W 005°19'0 0.0
2015-Apr-16 01:33N 35°54' W 005°19'0 0.0
2015-Apr-16 00:33N 35°54' W 005°19'0 0.0
2015-Apr-15 23:33N 35°54' W 005°19'0 0.0
2015-Apr-15 22:33N 35°54' W 005°19'0 0.0
2015-Apr-15 21:33N 35°54' W 005°19'0 0.0
2015-Apr-15 20:33N 35°54' W 005°19'0 0.0
2015-Apr-15 19:33N 35°54' W 005°19'0 0.0
2015-Apr-15 18:33N 35°54' W 005°19'0 0.0
2015-Apr-15 17:33N 35°54' W 005°19'0 0.0
2015-Apr-15 16:33N 35°54' W 005°19'0 0.0
2015-Apr-15 15:33N 35°54' W 005°19'0 0.0
2015-Apr-15 14:33N 35°54' W 005°19'0 0.0
2015-Apr-15 13:33N 35°54' W 005°19'0 0.0
2015-Apr-15 12:33N 35°54' W 005°19'0 0.0
2015-Apr-15 11:33N 35°54' W 005°19'0 0.0
2015-Apr-15 10:33N 35°54' W 005°19'0 0.0
2015-Apr-15 09:33N 35°54' W 005°19'0 0.0
2015-Apr-15 08:33N 35°54' W 005°19'0 0.0
2015-Apr-15 07:33N 35°54' W 005°19'0 0.0
2015-Apr-15 06:33N 35°54' W 005°19'0 0.0
2015-Apr-15 05:30N 35°54' W 005°19'0 0.0
2015-Apr-15 04:33N 35°54' W 005°19'0 0.0
2015-Apr-15 03:33N 35°54' W 005°19'0 0.0
2015-Apr-15 02:33N 35°54' W 005°19'0 0.0
2015-Apr-15 01:33N 35°54' W 005°19'0 0.0
2015-Apr-15 00:33N 35°54' W 005°19'0 0.0
2015-Apr-14 23:33N 35°54' W 005°19'0 0.0
2015-Apr-14 22:30N 35°54' W 005°19'0 0.0
2015-Apr-14 21:33N 35°54' W 005°19'0 0.0
2015-Apr-14 20:33N 35°54' W 005°19'0 0.0
2015-Apr-14 19:33N 35°54' W 005°19'0 0.0
2015-Apr-14 18:33N 35°54' W 005°19'0 0.0
2015-Apr-14 17:33N 35°54' W 005°19'0 0.0
2015-Apr-14 16:33N 35°54' W 005°19'0 0.0
2015-Apr-14 15:33N 35°54' W 005°19'0 0.0
2015-Apr-14 14:33N 35°54' W 005°19'0 0.0
2015-Apr-14 13:32N 35°54' W 005°19'0 0.0
2015-Apr-14 12:33N 35°54' W 005°19'0 0.0
2015-Apr-14 11:32N 35°54' W 005°19'2 1.7
2015-Apr-14 10:33N 35°55' W 005°19'13 6.6
2015-Apr-14 08:33N 36°08' W 005°25'2 1.6
2015-Apr-14 07:31N 36°09' W 005°26'1 0.0
2015-Apr-12 14:26N 36°08' W 005°26'0 0.0
2015-Apr-12 12:32N 36°08' W 005°26'0 0.0
2015-Apr-11 07:08N 36°08' W 005°26'0 0.0
2015-Apr-11 04:29N 36°08' W 005°26'0 0.0
2015-Apr-11 03:32N 36°08' W 005°26'  
2015-Apr-07 15:28N 36°10' W 005°24'0 0.4
2015-Apr-07 14:25N 36°10' W 005°24'3 3.0
2015-Apr-07 13:33N 36°08' W 005°25'1 0.6
2015-Apr-07 12:16N 36°08' W 005°25'  
Track history (hours):
 
Tides and Currents Weather Stations Pressure Air Temp Water Temp Dewpoint Dewpoint Depression Visibility Wind Speed Wind Dir Waves Ship Positions

Luz De Mar

Last reported at 2015-Apr-16 13:33 UTC. Time now 2015-May-06 21:31 UTC.
Position N 35°60' W 005°29'.
Warning: this ship's position is 20 days out of date.

Length 56 m; draft 6.5 m.

Type: SAR. MMSI: 224311000.

Date/timePositionNaut miles runAvg speedWind from/ knotsBaromVisibWave heightAir tempDewpointWater temp
2015-Apr-16 13:33N 35°60' W 005°29'10 9.3
2015-Apr-16 12:31N 36°09' W 005°26'2 1.0
2015-Apr-16 10:33N 36°08' W 005°24'1211.9
2015-Apr-16 09:34N 35°56' W 005°20'3 2.6
2015-Apr-16 08:33N 35°54' W 005°19'0 0.0
2015-Apr-16 07:33N 35°54' W 005°19'0 0.0
2015-Apr-16 06:33N 35°54' W 005°19'0 0.0
2015-Apr-16 05:33N 35°54' W 005°19'0 0.0
2015-Apr-16 04:33N 35°54' W 005°19'0 0.0
2015-Apr-16 03:33N 35°54' W 005°19'0 0.0
2015-Apr-16 02:33N 35°54' W 005°19'0 0.0
2015-Apr-16 01:33N 35°54' W 005°19'0 0.0
2015-Apr-16 00:33N 35°54' W 005°19'0 0.0
2015-Apr-15 23:33N 35°54' W 005°19'0 0.0
2015-Apr-15 22:33N 35°54' W 005°19'0 0.0
2015-Apr-15 21:33N 35°54' W 005°19'0 0.0
2015-Apr-15 20:33N 35°54' W 005°19'0 0.0
2015-Apr-15 19:33N 35°54' W 005°19'0 0.0
2015-Apr-15 18:33N 35°54' W 005°19'0 0.0
2015-Apr-15 17:33N 35°54' W 005°19'0 0.0
2015-Apr-15 16:33N 35°54' W 005°19'0 0.0
2015-Apr-15 15:33N 35°54' W 005°19'0 0.0
2015-Apr-15 14:33N 35°54' W 005°19'0 0.0
2015-Apr-15 13:33N 35°54' W 005°19'0 0.0
2015-Apr-15 12:33N 35°54' W 005°19'0 0.0
2015-Apr-15 11:33N 35°54' W 005°19'0 0.0
2015-Apr-15 10:33N 35°54' W 005°19'0 0.0
2015-Apr-15 09:33N 35°54' W 005°19'0 0.0
2015-Apr-15 08:33N 35°54' W 005°19'0 0.0
2015-Apr-15 07:33N 35°54' W 005°19'0 0.0
2015-Apr-15 06:33N 35°54' W 005°19'0 0.0
2015-Apr-15 05:30N 35°54' W 005°19'0 0.0
2015-Apr-15 04:33N 35°54' W 005°19'0 0.0
2015-Apr-15 03:33N 35°54' W 005°19'0 0.0
2015-Apr-15 02:33N 35°54' W 005°19'0 0.0
2015-Apr-15 01:33N 35°54' W 005°19'0 0.0
2015-Apr-15 00:33N 35°54' W 005°19'0 0.0
2015-Apr-14 23:33N 35°54' W 005°19'0 0.0
2015-Apr-14 22:30N 35°54' W 005°19'0 0.0
2015-Apr-14 21:33N 35°54' W 005°19'0 0.0
2015-Apr-14 20:33N 35°54' W 005°19'0 0.0
2015-Apr-14 19:33N 35°54' W 005°19'0 0.0
2015-Apr-14 18:33N 35°54' W 005°19'0 0.0
2015-Apr-14 17:33N 35°54' W 005°19'0 0.0
2015-Apr-14 16:33N 35°54' W 005°19'0 0.0
2015-Apr-14 15:33N 35°54' W 005°19'0 0.0
2015-Apr-14 14:33N 35°54' W 005°19'0 0.0
2015-Apr-14 13:32N 35°54' W 005°19'0 0.0
2015-Apr-14 12:33N 35°54' W 005°19'0 0.0
2015-Apr-14 11:32N 35°54' W 005°19'2 1.7
2015-Apr-14 10:33N 35°55' W 005°19'13 6.6
2015-Apr-14 08:33N 36°08' W 005°25'2 1.6
2015-Apr-14 07:31N 36°09' W 005°26'1 0.0
2015-Apr-12 14:26N 36°08' W 005°26'0 0.0
2015-Apr-12 12:32N 36°08' W 005°26'0 0.0
2015-Apr-11 07:08N 36°08' W 005°26'0 0.0
2015-Apr-11 04:29N 36°08' W 005°26'0 0.0
2015-Apr-11 03:32N 36°08' W 005°26'  
2015-Apr-07 15:28N 36°10' W 005°24'0 0.4
2015-Apr-07 14:25N 36°10' W 005°24'3 3.0
2015-Apr-07 13:33N 36°08' W 005°25'1 0.6
2015-Apr-07 12:16N 36°08' W 005°25'  

Dump ship's entire track history